createdAt,value
2022-11-24T00:00:29.701Z,10.45
2022-11-24T00:02:56.268Z,9.90
2022-11-24T00:05:23.591Z,6.95
2022-11-24T00:07:50.093Z,10.20
2022-11-24T00:10:16.622Z,8.38
2022-11-24T00:12:43.138Z,8.73
2022-11-24T00:15:10.015Z,8.40
2022-11-24T00:17:36.423Z,7.28
2022-11-24T00:20:02.998Z,11.80
2022-11-24T00:22:29.378Z,9.90
2022-11-24T00:24:55.764Z,8.57
2022-11-24T00:27:22.230Z,10.70
2022-11-24T00:29:48.595Z,12.13
2022-11-24T00:32:15.004Z,8.77
2022-11-24T00:34:42.008Z,10.07
2022-11-24T00:37:08.425Z,11.10
2022-11-24T00:39:34.796Z,13.18
2022-11-24T00:42:02.010Z,9.10
2022-11-24T00:44:28.390Z,13.30
2022-11-24T00:46:54.954Z,8.40
2022-11-24T00:49:21.473Z,9.32
2022-11-24T00:51:47.939Z,12.10
2022-11-24T00:54:14.394Z,9.13
2022-11-24T00:56:40.825Z,13.55
2022-11-24T00:59:07.367Z,15.35
2022-11-24T01:01:34.029Z,9.25
2022-11-24T01:04:03.802Z,16.63
2022-11-24T01:06:31.014Z,15.90
2022-11-24T01:08:58.007Z,14.93
2022-11-24T01:11:51.583Z,12.90
2022-11-24T01:14:18.608Z,11.75
2022-11-24T01:16:45.065Z,11.27
2022-11-24T01:19:11.524Z,10.32
2022-11-24T01:21:37.937Z,12.38
2022-11-24T01:24:04.554Z,11.00
2022-11-24T01:26:31.002Z,14.95
2022-11-24T01:28:58.468Z,14.35
2022-11-24T01:31:25.586Z,16.30
2022-11-24T01:33:52.661Z,14.52
2022-11-24T01:36:19.289Z,13.98
2022-11-24T01:38:46.043Z,15.90
2022-11-24T01:41:18.311Z,13.48
2022-11-24T01:43:45.429Z,16.35
2022-11-24T01:46:30.993Z,15.70
2022-11-24T01:49:22.629Z,17.75
2022-11-24T01:51:58.505Z,12.55
2022-11-24T01:54:33.245Z,20.00
2022-11-24T01:57:06.675Z,16.35
2022-11-24T01:59:33.175Z,22.20
2022-11-24T02:01:59.800Z,23.58
2022-11-24T02:04:29.672Z,17.92
2022-11-24T02:06:57.873Z,17.60
2022-11-24T02:09:27.868Z,21.00
2022-11-24T02:11:54.922Z,21.67
2022-11-24T02:14:22.420Z,21.25
2022-11-24T02:16:50.063Z,24.10
2022-11-24T02:19:32.920Z,16.90
2022-11-24T02:21:59.978Z,20.30
2022-11-24T02:24:39.112Z,22.20
2022-11-24T02:27:05.602Z,15.43
2022-11-24T02:29:32.090Z,23.85
2022-11-24T02:32:01.004Z,23.05
2022-11-24T02:34:27.472Z,23.25
2022-11-24T02:36:53.841Z,16.83
2022-11-24T02:39:20.948Z,19.55
2022-11-24T02:41:52.484Z,16.52
2022-11-24T02:44:20.725Z,18.08
2022-11-24T02:46:47.101Z,22.67
2022-11-24T02:49:13.532Z,19.88
2022-11-24T02:51:39.947Z,20.95
2022-11-24T02:54:06.431Z,24.02
2022-11-24T02:56:32.873Z,16.02
2022-11-24T02:58:59.307Z,26.08
2022-11-24T03:01:25.792Z,18.40
2022-11-24T03:03:52.264Z,30.55
2022-11-24T03:06:18.671Z,19.17
2022-11-24T03:08:45.238Z,18.15
2022-11-24T03:11:12.064Z,24.55
2022-11-24T03:13:38.481Z,22.33
2022-11-24T03:16:08.497Z,18.85
2022-11-24T03:18:34.964Z,21.08
2022-11-24T03:21:01.457Z,20.63
2022-11-24T03:23:27.941Z,22.65
2022-11-24T03:25:54.919Z,26.95
2022-11-24T03:28:21.349Z,22.67
2022-11-24T03:30:50.953Z,20.92
2022-11-24T03:33:17.403Z,25.92
2022-11-24T03:35:43.776Z,23.25
2022-11-24T03:38:10.252Z,17.95
2022-11-24T03:40:36.653Z,27.65
2022-11-24T03:43:03.047Z,19.80
2022-11-24T03:45:45.318Z,22.30
2022-11-24T03:48:13.613Z,21.58
2022-11-24T03:50:40.134Z,25.42
2022-11-24T03:53:06.576Z,23.88
2022-11-24T03:55:32.977Z,23.98
2022-11-24T03:57:59.418Z,21.63
2022-11-24T04:00:26.388Z,26.45
2022-11-24T04:02:52.845Z,25.48
2022-11-24T04:05:19.430Z,28.05
2022-11-24T04:07:45.993Z,24.00
2022-11-24T04:10:12.559Z,24.88
2022-11-24T04:12:44.912Z,22.55
2022-11-24T04:15:16.440Z,19.50
2022-11-24T04:17:43.411Z,22.85
2022-11-24T04:20:11.084Z,22.40
2022-11-24T04:22:37.523Z,24.02
2022-11-24T04:25:04.961Z,23.52
2022-11-24T04:27:33.124Z,21.90
2022-11-24T04:29:59.560Z,19.88
2022-11-24T04:32:26.019Z,28.00
2022-11-24T04:34:53.239Z,21.58
2022-11-24T04:37:19.632Z,21.80
2022-11-24T04:39:46.441Z,20.23
2022-11-24T04:42:13.092Z,20.65
2022-11-24T04:44:39.536Z,16.95
2022-11-24T04:47:06.564Z,22.88
2022-11-24T04:49:33.078Z,23.65
2022-11-24T04:51:59.474Z,19.10
2022-11-24T04:54:25.937Z,15.75
2022-11-24T04:56:53.103Z,22.00
2022-11-24T04:59:20.017Z,19.02
2022-11-24T05:01:47.105Z,18.20
2022-11-24T05:04:15.171Z,25.40
2022-11-24T05:06:41.714Z,26.95
2022-11-24T05:09:08.837Z,18.15
2022-11-24T05:11:35.248Z,20.98
2022-11-24T05:14:01.964Z,17.90
2022-11-24T05:16:28.394Z,19.30
2022-11-24T05:18:54.836Z,21.45
2022-11-24T05:21:21.239Z,21.98
2022-11-24T05:23:47.734Z,21.15
2022-11-24T05:26:14.202Z,20.70
2022-11-24T05:28:40.627Z,19.02
2022-11-24T05:31:07.158Z,18.20
2022-11-24T05:33:33.744Z,22.15
2022-11-24T05:36:02.162Z,23.48
2022-11-24T05:38:29.876Z,20.30
2022-11-24T05:41:05.920Z,21.75
2022-11-24T05:43:32.392Z,25.92
2022-11-24T05:46:00.333Z,26.27
2022-11-24T05:48:26.902Z,19.83
2022-11-24T05:50:55.632Z,16.10
2022-11-24T05:53:22.585Z,21.83
2022-11-24T05:55:49.183Z,27.20
2022-11-24T05:58:15.730Z,19.40
2022-11-24T06:00:42.220Z,22.48
2022-11-24T06:03:10.107Z,18.83
2022-11-24T06:05:36.697Z,16.85
2022-11-24T06:08:03.285Z,18.30
2022-11-24T06:10:29.867Z,20.88
2022-11-24T06:12:56.342Z,16.95
2022-11-24T06:15:23.081Z,18.42
2022-11-24T06:17:54.628Z,15.05
2022-11-24T06:20:21.473Z,23.58
2022-11-24T06:22:48.357Z,14.88
2022-11-24T06:25:16.140Z,20.48
2022-11-24T06:27:42.792Z,21.02
2022-11-24T06:30:09.829Z,24.63
2022-11-24T06:32:36.266Z,20.88
2022-11-24T06:35:02.885Z,20.33
2022-11-24T06:37:29.315Z,21.63
2022-11-24T06:39:55.749Z,16.73
2022-11-24T06:42:22.163Z,21.90
2022-11-24T06:44:48.683Z,19.42
2022-11-24T06:47:15.447Z,19.13
2022-11-24T06:49:41.896Z,24.25
2022-11-24T06:52:08.486Z,22.92
2022-11-24T06:54:35.020Z,23.60
2022-11-24T06:57:01.557Z,21.48
2022-11-24T06:59:28.203Z,20.77
2022-11-24T07:01:54.650Z,21.13
2022-11-24T07:04:21.166Z,25.95
2022-11-24T07:06:47.698Z,20.40
2022-11-24T07:09:14.693Z,14.80
2022-11-24T07:11:41.454Z,18.90
2022-11-24T07:14:08.395Z,22.95
2022-11-24T07:16:35.051Z,18.48
2022-11-24T07:19:01.730Z,24.08
2022-11-24T07:21:29.254Z,19.88
2022-11-24T07:23:57.285Z,19.33
2022-11-24T07:26:23.849Z,20.08
2022-11-24T07:28:50.994Z,22.95
2022-11-24T07:31:20.229Z,19.55
2022-11-24T07:33:50.994Z,17.88
2022-11-24T07:36:17.669Z,20.67
2022-11-24T07:38:44.287Z,30.08
2022-11-24T07:41:12.460Z,22.20
2022-11-24T07:43:39.503Z,22.08
2022-11-24T07:46:07.609Z,27.27
2022-11-24T07:48:34.400Z,24.38
2022-11-24T07:51:02.095Z,20.58
2022-11-24T07:53:28.941Z,23.75
2022-11-24T07:55:56.649Z,19.17
2022-11-24T07:58:23.286Z,23.08
2022-11-24T08:00:49.772Z,23.88
2022-11-24T08:03:16.646Z,27.17
2022-11-24T08:06:07.953Z,22.02
2022-11-24T08:08:33.181Z,19.38
2022-11-24T08:11:08.109Z,25.95
2022-11-24T08:13:35.691Z,24.80
2022-11-24T08:16:15.869Z,21.65
2022-11-24T08:18:42.860Z,22.83
2022-11-24T08:21:14.035Z,24.58
2022-11-24T08:23:40.928Z,28.95
2022-11-24T08:26:10.737Z,22.77
2022-11-24T08:28:38.124Z,25.42
2022-11-24T08:31:07.303Z,24.15
2022-11-24T08:33:33.735Z,26.05
2022-11-24T08:36:08.263Z,23.25
2022-11-24T08:38:34.781Z,32.20
2022-11-24T08:41:03.176Z,31.35
2022-11-24T08:43:29.882Z,25.63
2022-11-24T08:45:59.882Z,24.08
2022-11-24T08:48:26.764Z,27.33
2022-11-24T08:50:53.286Z,28.20
2022-11-24T08:53:19.900Z,21.70
2022-11-24T08:55:46.334Z,29.10
2022-11-24T08:58:12.793Z,21.08
2022-11-24T09:00:39.218Z,24.52
2022-11-24T09:03:05.613Z,24.27
2022-11-24T09:08:20.572Z,23.35
2022-11-24T09:10:47.110Z,21.65
2022-11-24T09:13:13.801Z,26.13
2022-11-24T09:15:40.262Z,21.67
2022-11-24T09:18:06.796Z,26.33
2022-11-24T09:20:33.179Z,25.05
2022-11-24T09:22:59.647Z,22.88
2022-11-24T09:25:26.358Z,19.40
2022-11-24T09:27:53.566Z,24.70
2022-11-24T09:30:20.337Z,21.63
2022-11-24T09:32:46.816Z,21.00
2022-11-24T09:35:13.343Z,26.40
2022-11-24T09:37:39.887Z,24.17
2022-11-24T09:40:07.169Z,17.85
2022-11-24T09:42:55.464Z,18.45
2022-11-24T09:45:57.544Z,26.08
2022-11-24T09:48:31.072Z,22.25
2022-11-24T09:51:00.096Z,25.33
2022-11-24T09:53:46.218Z,18.42
2022-11-24T09:56:20.795Z,23.63
2022-11-24T09:58:51.471Z,26.33
2022-11-24T10:01:20.894Z,20.67
2022-11-24T10:03:49.687Z,19.52
2022-11-24T10:06:39.243Z,20.92
2022-11-24T10:09:41.376Z,21.65
2022-11-24T10:12:23.348Z,18.92
2022-11-24T10:15:14.904Z,20.10
2022-11-24T10:17:59.514Z,25.50
2022-11-24T10:20:47.246Z,21.58
2022-11-24T10:23:46.240Z,19.45
2022-11-24T10:26:18.976Z,23.33
2022-11-24T10:28:58.426Z,19.60
2022-11-24T10:31:38.299Z,25.75
2022-11-24T10:34:17.552Z,21.13
2022-11-24T10:36:50.570Z,24.35
2022-11-24T10:39:50.454Z,20.75
2022-11-24T10:42:31.680Z,25.33
2022-11-24T10:45:01.990Z,16.52
2022-11-24T10:47:28.830Z,22.63
2022-11-24T10:50:01.075Z,23.17
2022-11-24T10:52:29.653Z,18.42
2022-11-24T10:55:01.338Z,22.75
2022-11-24T10:57:30.449Z,19.33
2022-11-24T10:59:56.993Z,24.05
2022-11-24T11:02:30.813Z,21.77
2022-11-24T11:04:57.663Z,24.75
2022-11-24T11:07:26.542Z,24.00
2022-11-24T11:10:22.779Z,28.60
2022-11-24T11:12:49.281Z,16.70
2022-11-24T11:15:26.825Z,28.67
2022-11-24T11:17:58.044Z,21.10
2022-11-24T11:20:33.603Z,22.80
2022-11-24T11:23:27.509Z,21.40
2022-11-24T11:26:20.188Z,18.77
2022-11-24T11:34:52.518Z,14.07
2022-11-24T11:37:20.689Z,18.23
2022-11-24T11:39:49.513Z,16.60
2022-11-24T11:42:53.721Z,16.50
2022-11-24T11:45:21.012Z,18.63
2022-11-24T11:47:50.969Z,18.48
2022-11-24T11:50:20.980Z,17.92
2022-11-24T11:52:57.232Z,16.30
2022-11-24T11:55:50.127Z,15.25
2022-11-24T11:58:38.261Z,16.60
2022-11-24T12:01:35.810Z,18.58
2022-11-24T12:04:34.806Z,17.30
2022-11-24T12:07:47.445Z,19.05
2022-11-24T12:10:24.265Z,16.40
2022-11-24T12:13:15.580Z,13.95
2022-11-24T12:15:46.415Z,16.48
2022-11-24T12:18:40.371Z,12.13
2022-11-24T12:21:29.888Z,11.85
2022-11-24T12:24:05.723Z,15.63
2022-11-24T12:26:52.998Z,13.15
2022-11-24T12:29:30.012Z,13.25
2022-11-24T12:32:32.203Z,12.48
2022-11-24T12:35:10.598Z,15.30
2022-11-24T12:37:47.594Z,12.88
2022-11-24T12:41:33.511Z,13.02
2022-11-24T12:43:57.303Z,11.27
2022-11-24T12:46:38.727Z,9.73
2022-11-24T12:49:11.800Z,13.98
2022-11-24T12:51:40.309Z,9.18
2022-11-24T12:54:11.873Z,11.38
2022-11-24T12:56:43.788Z,13.32
2022-11-24T12:59:25.449Z,12.85
2022-11-24T13:02:04.257Z,10.30
2022-11-24T13:05:00.995Z,12.27
2022-11-24T13:07:40.289Z,11.52
2022-11-24T13:16:13.197Z,16.15
2022-11-24T13:18:48.538Z,15.68
2022-11-24T13:21:47.164Z,11.40
2022-11-24T13:24:16.746Z,14.13
2022-11-24T13:26:43.549Z,14.75
2022-11-24T13:29:28.201Z,13.68
2022-11-24T13:31:55.996Z,15.20
2022-11-24T13:34:40.824Z,13.02
2022-11-24T13:37:32.103Z,15.80
2022-11-24T13:40:11.390Z,14.18
2022-11-24T13:43:10.151Z,13.18
2022-11-24T13:45:40.200Z,15.07
2022-11-24T13:48:19.372Z,15.43
2022-11-24T13:50:56.124Z,15.27
2022-11-24T13:53:34.622Z,13.63
2022-11-24T13:56:08.735Z,17.13
2022-11-24T13:58:54.900Z,18.52
2022-11-24T14:01:25.974Z,16.42
2022-11-24T14:06:51.786Z,14.93
2022-11-24T14:09:20.450Z,17.85
2022-11-24T14:11:55.888Z,13.43
2022-11-24T14:14:25.651Z,18.10
2022-11-24T14:17:07.070Z,16.40
2022-11-24T14:19:33.530Z,13.95
2022-11-24T14:22:00.030Z,14.75
2022-11-24T14:24:33.451Z,14.25
2022-11-24T14:27:05.196Z,14.82
2022-11-24T14:29:33.254Z,16.38
2022-11-24T14:32:03.556Z,17.58
2022-11-24T14:34:33.201Z,18.27
2022-11-24T14:37:00.753Z,14.60
2022-11-24T14:39:27.987Z,16.13
2022-11-24T14:42:20.481Z,17.10
2022-11-24T14:44:59.322Z,15.73
2022-11-24T14:47:31.400Z,14.88
2022-11-24T14:50:09.220Z,17.48
2022-11-24T14:52:36.050Z,15.00
2022-11-24T14:55:21.535Z,18.05
2022-11-24T14:57:50.007Z,15.27
2022-11-24T15:00:29.744Z,14.45
2022-11-24T15:03:14.318Z,16.38
2022-11-24T15:05:58.637Z,16.92
2022-11-24T15:08:26.895Z,18.13
2022-11-24T15:11:04.147Z,17.77
2022-11-24T15:13:34.897Z,15.82
2022-11-24T15:16:03.975Z,16.60
2022-11-24T15:18:41.363Z,16.83
2022-11-24T15:21:11.813Z,17.40
2022-11-24T15:23:43.403Z,17.20
2022-11-24T15:26:30.576Z,15.05
2022-11-24T15:28:58.644Z,21.35
2022-11-24T15:31:25.209Z,14.18
2022-11-24T15:33:51.752Z,19.50
2022-11-24T15:36:20.053Z,16.73
2022-11-24T15:38:46.615Z,19.17
2022-11-24T15:41:20.795Z,17.48
2022-11-24T15:43:47.797Z,20.27
2022-11-24T15:46:14.521Z,18.52
2022-11-24T15:48:41.084Z,24.20
2022-11-24T15:51:11.992Z,23.85
2022-11-24T15:53:57.088Z,20.85
2022-11-24T15:56:32.411Z,15.90
2022-11-24T15:58:59.614Z,20.27
2022-11-24T16:01:29.636Z,19.88
2022-11-24T16:03:56.167Z,24.17
2022-11-24T16:06:25.150Z,23.95
2022-11-24T16:08:53.062Z,24.13
2022-11-24T16:11:20.437Z,17.98
2022-11-24T16:13:51.999Z,25.20
2022-11-24T16:16:20.019Z,19.42
2022-11-24T16:18:46.604Z,24.45
2022-11-24T16:21:12.999Z,22.50
2022-11-24T16:23:39.535Z,20.70
2022-11-24T16:26:06.708Z,19.20
2022-11-24T16:28:34.483Z,19.77
2022-11-24T16:31:01.062Z,18.83
2022-11-24T16:33:29.654Z,22.45
2022-11-24T16:35:56.068Z,22.63
2022-11-24T16:38:22.489Z,24.20
2022-11-24T16:40:53.180Z,27.65
2022-11-24T16:43:19.895Z,22.52
2022-11-24T16:45:46.402Z,21.65
2022-11-24T16:48:12.910Z,26.73
2022-11-24T16:50:39.339Z,22.63
2022-11-24T16:53:05.848Z,22.67
2022-11-24T16:55:32.325Z,20.77
2022-11-24T16:57:58.846Z,27.33
2022-11-24T17:00:25.364Z,21.02
2022-11-24T17:02:51.880Z,19.92
2022-11-24T17:05:23.189Z,20.92
2022-11-24T17:07:49.634Z,23.63
2022-11-24T17:10:16.119Z,23.75
2022-11-24T17:12:43.396Z,22.20
2022-11-24T17:15:31.780Z,20.13
2022-11-24T17:18:23.107Z,22.17
2022-11-24T17:20:43.150Z,22.05
2022-11-24T17:23:09.746Z,24.75
2022-11-24T17:25:36.240Z,20.67
2022-11-24T17:28:02.670Z,18.02
2022-11-24T17:30:29.148Z,19.50
2022-11-24T17:32:57.065Z,20.08
2022-11-24T17:35:23.636Z,24.88
2022-11-24T17:37:50.093Z,22.33
2022-11-24T17:40:34.282Z,21.48
2022-11-24T17:43:01.020Z,19.90
2022-11-24T17:45:28.677Z,20.15
2022-11-24T17:47:56.113Z,22.20
2022-11-24T17:50:25.947Z,26.40
2022-11-24T17:52:53.340Z,21.17
2022-11-24T17:55:19.841Z,16.00
2022-11-24T17:57:46.294Z,21.25
2022-11-24T18:00:13.458Z,18.80
2022-11-24T18:02:39.949Z,18.30
2022-11-24T18:05:06.853Z,19.73
2022-11-24T18:07:36.452Z,17.50
2022-11-24T18:10:03.649Z,15.98
2022-11-24T18:12:30.128Z,18.35
2022-11-24T18:14:56.732Z,15.85
2022-11-24T18:17:23.233Z,16.83
2022-11-24T18:19:49.643Z,13.02
2022-11-24T18:22:16.116Z,15.18
2022-11-24T18:24:42.542Z,22.75
2022-11-24T18:27:09.068Z,16.50
2022-11-24T18:29:35.457Z,18.25
2022-11-24T18:32:02.285Z,15.40
2022-11-24T18:34:28.834Z,15.40
2022-11-24T18:36:55.451Z,21.70
2022-11-24T18:39:21.974Z,22.00
2022-11-24T18:41:48.415Z,18.27
2022-11-24T18:44:14.889Z,18.77
2022-11-24T18:46:41.435Z,14.77
2022-11-24T18:49:07.956Z,21.27
2022-11-24T18:51:34.694Z,15.60
2022-11-24T18:54:02.960Z,15.63
2022-11-24T18:56:29.481Z,19.30
2022-11-24T18:58:56.583Z,16.88
2022-11-24T19:01:26.512Z,18.50
2022-11-24T19:03:57.948Z,22.33
2022-11-24T19:06:32.331Z,20.08
2022-11-24T19:09:04.603Z,16.30
2022-11-24T19:11:33.769Z,15.05
2022-11-24T19:14:00.918Z,20.80
2022-11-24T19:16:27.446Z,16.35
2022-11-24T19:18:57.200Z,18.63
2022-11-24T19:21:23.674Z,13.68
2022-11-24T19:23:50.187Z,18.33
2022-11-24T19:26:16.603Z,21.08
2022-11-24T19:28:43.257Z,19.63
2022-11-24T19:31:12.254Z,21.83
2022-11-24T19:33:39.401Z,24.40
2022-11-24T19:36:13.849Z,20.83
2022-11-24T19:38:41.057Z,19.08
2022-11-24T19:41:12.326Z,22.45
2022-11-24T19:43:39.576Z,18.10
2022-11-24T19:46:08.063Z,17.50
2022-11-24T19:48:38.387Z,18.70
2022-11-24T19:51:07.559Z,24.90
2022-11-24T19:53:34.607Z,20.65
2022-11-24T19:56:05.247Z,22.10
2022-11-24T19:58:32.211Z,19.52
2022-11-24T20:01:16.065Z,19.88
2022-11-24T20:03:44.113Z,18.80
2022-11-24T20:06:12.670Z,23.02
2022-11-24T20:08:40.113Z,20.08
2022-11-24T20:11:15.391Z,22.35
2022-11-24T20:13:43.499Z,21.98
2022-11-24T20:16:15.188Z,19.77
2022-11-24T20:18:43.875Z,18.43
2022-11-24T20:21:15.561Z,19.15
2022-11-24T20:23:42.432Z,9.60
2022-11-24T20:26:12.122Z,20.00
2022-11-24T20:28:39.061Z,16.20
2022-11-24T20:31:08.389Z,17.48
2022-11-24T20:33:35.931Z,15.43
2022-11-24T20:36:18.955Z,16.48
2022-11-24T20:38:46.371Z,12.65
2022-11-24T20:41:17.927Z,14.45
2022-11-24T20:43:44.879Z,16.63
2022-11-24T20:46:20.498Z,16.05
2022-11-24T20:48:47.215Z,16.83
2022-11-24T20:51:24.724Z,16.10
2022-11-24T20:53:53.296Z,21.27
2022-11-24T20:56:24.073Z,20.05
2022-11-24T20:58:50.566Z,17.88
2022-11-24T21:01:19.523Z,16.20
2022-11-24T21:03:47.952Z,16.73
2022-11-24T21:06:14.953Z,17.13
2022-11-24T21:08:42.484Z,14.65
2022-11-24T21:11:11.295Z,18.65
2022-11-24T21:13:39.001Z,15.80
2022-11-24T21:16:16.196Z,17.65
2022-11-24T21:18:44.448Z,12.40
2022-11-24T21:21:11.503Z,17.40
2022-11-24T21:23:37.969Z,18.73
2022-11-24T21:26:07.469Z,15.77
2022-11-24T21:28:37.116Z,18.40
2022-11-24T21:31:15.271Z,21.80
2022-11-24T21:33:43.219Z,14.80
2022-11-24T21:36:09.803Z,16.23
2022-11-24T21:38:36.463Z,23.60
2022-11-24T21:41:04.530Z,11.35
2022-11-24T21:43:31.772Z,12.43
2022-11-24T21:46:08.613Z,19.50
2022-11-24T21:48:35.869Z,15.68
2022-11-24T21:51:04.112Z,13.48
2022-11-24T21:53:32.754Z,14.77
2022-11-24T21:56:09.714Z,15.55
2022-11-24T21:58:36.652Z,12.50
2022-11-24T22:01:04.889Z,17.45
2022-11-24T22:03:31.628Z,17.25
2022-11-24T22:06:00.234Z,16.48
2022-11-24T22:08:28.004Z,19.42
2022-11-24T22:11:00.591Z,18.98
2022-11-24T22:16:00.967Z,14.05
2022-11-24T22:18:31.054Z,18.45
2022-11-24T22:20:57.652Z,16.65
2022-11-24T22:23:24.307Z,18.25
2022-11-24T22:25:50.678Z,15.93
2022-11-24T22:28:17.089Z,16.65
2022-11-24T22:30:43.927Z,21.00
2022-11-24T22:33:10.340Z,15.00
2022-11-24T22:35:36.762Z,18.05
2022-11-24T22:38:03.222Z,17.38
2022-11-24T22:40:29.686Z,17.88
2022-11-24T22:42:57.760Z,20.75
2022-11-24T22:45:24.208Z,17.30
2022-11-24T22:47:54.581Z,20.00
2022-11-24T22:50:21.085Z,14.80
2022-11-24T22:52:49.794Z,16.25
2022-11-24T22:55:16.455Z,16.65
2022-11-24T22:57:47.428Z,13.48
2022-11-24T23:00:15.269Z,15.38
2022-11-24T23:02:41.699Z,14.55
2022-11-24T23:05:08.423Z,14.07
2022-11-24T23:07:34.951Z,15.32
2022-11-24T23:10:02.367Z,16.65
2022-11-24T23:12:28.793Z,12.93
2022-11-24T23:14:55.223Z,15.45
2022-11-24T23:17:21.740Z,9.43
2022-11-24T23:19:48.251Z,15.00
2022-11-24T23:22:14.686Z,20.70
2022-11-24T23:24:41.071Z,18.92
2022-11-24T23:27:07.487Z,12.32
2022-11-24T23:29:33.896Z,10.65
2022-11-24T23:32:00.420Z,13.00
2022-11-24T23:34:26.879Z,17.25
2022-11-24T23:36:53.310Z,17.52
2022-11-24T23:39:19.736Z,12.52
2022-11-24T23:41:46.164Z,15.70
2022-11-24T23:44:12.592Z,12.90
2022-11-24T23:46:39.083Z,16.92
2022-11-24T23:49:05.462Z,12.73
2022-11-24T23:51:33.156Z,12.73
2022-11-24T23:54:00.196Z,12.10
2022-11-24T23:56:32.538Z,15.38
2022-11-24T23:59:00.068Z,15.43
